createdAt,value
2023-03-06T00:00:42.355Z,8.48
2023-03-06T00:03:09.362Z,10.15
2023-03-06T00:05:36.636Z,9.90
2023-03-06T00:08:03.505Z,11.63
2023-03-06T00:10:30.860Z,10.25
2023-03-06T00:13:00.166Z,10.27
2023-03-06T00:15:27.115Z,8.85
2023-03-06T00:17:53.996Z,9.93
2023-03-06T00:20:21.780Z,12.30
2023-03-06T00:22:48.974Z,9.98
2023-03-06T00:25:17.781Z,9.15
2023-03-06T00:27:44.606Z,13.05
2023-03-06T00:30:15.035Z,9.80
2023-03-06T00:32:42.587Z,7.55
2023-03-06T00:35:09.738Z,10.15
2023-03-06T00:37:36.970Z,12.30
2023-03-06T00:40:11.994Z,8.80
2023-03-06T00:42:39.009Z,9.48
2023-03-06T00:45:06.765Z,8.95
2023-03-06T00:47:33.657Z,8.65
2023-03-06T00:50:00.528Z,8.70
2023-03-06T00:52:27.798Z,10.15
2023-03-06T00:54:56.302Z,10.35
2023-03-06T00:57:23.379Z,10.68
2023-03-06T00:59:50.372Z,9.55
2023-03-06T01:02:17.354Z,7.30
2023-03-06T01:04:44.657Z,10.65
2023-03-06T01:07:14.537Z,11.77
2023-03-06T01:09:43.893Z,9.52
2023-03-06T01:12:10.706Z,10.77
2023-03-06T01:14:37.680Z,11.00
2023-03-06T01:17:04.472Z,10.23
2023-03-06T01:19:31.505Z,10.93
2023-03-06T01:21:58.228Z,12.68
2023-03-06T01:24:25.962Z,10.18
2023-03-06T01:26:52.992Z,10.45
2023-03-06T01:29:20.294Z,12.02
2023-03-06T01:31:47.317Z,15.10
2023-03-06T01:34:16.507Z,11.93
2023-03-06T01:36:43.614Z,8.85
2023-03-06T01:39:10.746Z,11.48
2023-03-06T01:41:37.918Z,13.18
2023-03-06T01:44:04.959Z,11.05
2023-03-06T01:46:44.772Z,10.10
2023-03-06T01:49:37.172Z,14.30
2023-03-06T01:52:12.562Z,12.35
2023-03-06T01:54:51.629Z,12.10
2023-03-06T01:57:23.675Z,10.63
2023-03-06T01:59:54.102Z,10.88
2023-03-06T02:02:21.197Z,12.63
2023-03-06T02:04:48.122Z,11.55
2023-03-06T02:07:15.614Z,13.55
2023-03-06T02:09:42.460Z,13.43
2023-03-06T02:12:11.337Z,15.00
2023-03-06T02:14:38.739Z,14.73
2023-03-06T02:17:05.624Z,13.70
2023-03-06T02:19:32.543Z,11.32
2023-03-06T02:21:59.715Z,12.98
2023-03-06T02:24:58.669Z,16.42
2023-03-06T02:27:25.796Z,14.25
2023-03-06T02:29:52.828Z,15.15
2023-03-06T02:32:19.834Z,13.80
2023-03-06T02:34:53.483Z,17.98
2023-03-06T02:37:20.631Z,13.07
2023-03-06T02:39:50.214Z,13.48
2023-03-06T02:42:22.363Z,12.23
2023-03-06T02:44:51.558Z,17.75
2023-03-06T02:47:18.362Z,18.65
2023-03-06T02:49:45.340Z,17.13
2023-03-06T02:52:12.154Z,12.30
2023-03-06T02:54:39.106Z,12.55
2023-03-06T02:57:06.447Z,16.05
2023-03-06T02:59:33.364Z,20.00
2023-03-06T03:02:00.159Z,18.70
2023-03-06T03:04:27.066Z,17.27
2023-03-06T03:06:54.114Z,22.13
2023-03-06T03:09:20.998Z,15.38
2023-03-06T03:12:02.371Z,15.75
2023-03-06T03:14:29.208Z,14.80
2023-03-06T03:16:56.124Z,16.48
2023-03-06T03:19:22.986Z,20.23
2023-03-06T03:21:49.826Z,17.42
2023-03-06T03:24:16.816Z,17.20
2023-03-06T03:26:43.797Z,15.18
2023-03-06T03:29:10.900Z,18.15
2023-03-06T03:31:37.753Z,17.55
2023-03-06T03:34:04.678Z,18.73
2023-03-06T03:36:31.591Z,18.63
2023-03-06T03:38:58.671Z,20.92
2023-03-06T03:41:25.712Z,19.33
2023-03-06T03:43:52.659Z,18.17
2023-03-06T03:46:21.604Z,17.58
2023-03-06T03:48:48.588Z,24.85
2023-03-06T03:51:16.704Z,17.85
2023-03-06T03:53:44.454Z,18.00
2023-03-06T03:56:11.618Z,16.75
2023-03-06T03:58:38.908Z,19.55
2023-03-06T04:01:05.971Z,23.83
2023-03-06T04:03:32.868Z,19.60
2023-03-06T04:06:00.105Z,20.23
2023-03-06T04:08:27.221Z,18.13
2023-03-06T04:10:54.370Z,23.63
2023-03-06T04:13:22.114Z,20.58
2023-03-06T04:15:49.692Z,16.95
2023-03-06T04:18:16.859Z,19.33
2023-03-06T04:20:45.037Z,20.98
2023-03-06T04:23:11.968Z,17.65
2023-03-06T04:25:38.988Z,22.67
2023-03-06T04:28:06.220Z,21.23
2023-03-06T04:30:33.221Z,20.50
2023-03-06T04:33:00.394Z,22.00
2023-03-06T04:35:27.508Z,19.95
2023-03-06T04:37:54.527Z,21.88
2023-03-06T04:40:23.594Z,19.70
2023-03-06T04:42:50.695Z,19.00
2023-03-06T04:45:17.656Z,19.10
2023-03-06T04:47:44.942Z,17.08
2023-03-06T04:50:11.933Z,20.45
2023-03-06T04:52:40.445Z,21.58
2023-03-06T04:55:11.637Z,22.30
2023-03-06T04:57:39.213Z,20.52
2023-03-06T05:00:09.213Z,21.45
2023-03-06T05:02:36.629Z,18.50
2023-03-06T05:05:03.796Z,24.90
2023-03-06T05:07:30.953Z,19.58
2023-03-06T05:09:58.272Z,21.90
2023-03-06T05:12:28.140Z,18.10
2023-03-06T05:14:55.080Z,15.90
2023-03-06T05:17:21.979Z,18.77
2023-03-06T05:19:48.769Z,19.88
2023-03-06T05:22:15.611Z,21.75
2023-03-06T05:24:42.453Z,21.65
2023-03-06T05:27:09.251Z,21.08
2023-03-06T05:29:36.298Z,20.70
2023-03-06T05:32:03.361Z,21.70
2023-03-06T05:34:30.248Z,28.25
2023-03-06T05:36:57.108Z,17.20
2023-03-06T05:39:23.976Z,22.65
2023-03-06T05:41:50.983Z,20.20
2023-03-06T05:44:18.131Z,17.95
2023-03-06T05:46:45.099Z,19.70
2023-03-06T05:49:12.270Z,21.35
2023-03-06T05:51:39.093Z,20.85
2023-03-06T05:54:06.060Z,20.80
2023-03-06T05:56:32.939Z,20.48
2023-03-06T05:58:59.902Z,19.65
2023-03-06T06:01:28.540Z,20.83
2023-03-06T06:03:55.587Z,20.63
2023-03-06T06:06:22.826Z,20.05
2023-03-06T06:08:49.751Z,16.13
2023-03-06T06:11:18.321Z,16.67
2023-03-06T06:13:45.455Z,19.50
2023-03-06T06:16:16.009Z,18.50
2023-03-06T06:18:43.341Z,16.45
2023-03-06T06:21:14.460Z,16.75
2023-03-06T06:23:41.856Z,16.25
2023-03-06T06:26:09.371Z,15.88
2023-03-06T06:28:36.513Z,17.58
2023-03-06T06:31:11.064Z,15.00
2023-03-06T06:33:38.846Z,16.08
2023-03-06T06:36:06.039Z,16.70
2023-03-06T06:38:34.206Z,16.35
2023-03-06T06:41:35.671Z,18.17
2023-03-06T06:43:50.786Z,18.02
2023-03-06T06:46:59.021Z,15.27
2023-03-06T06:49:05.644Z,16.65
2023-03-06T06:51:33.338Z,18.08
2023-03-06T06:54:00.745Z,12.40
2023-03-06T06:56:27.571Z,15.25
2023-03-06T06:59:01.318Z,13.32
2023-03-06T07:01:37.578Z,15.20
2023-03-06T07:04:06.827Z,14.13
2023-03-06T07:06:33.747Z,16.67
2023-03-06T07:09:00.675Z,17.65
2023-03-06T07:11:27.626Z,13.30
2023-03-06T07:13:56.231Z,13.48
2023-03-06T07:16:23.350Z,12.60
2023-03-06T07:18:50.763Z,13.60
2023-03-06T07:21:17.770Z,11.98
2023-03-06T07:23:44.938Z,12.60
2023-03-06T07:26:11.899Z,12.70
2023-03-06T07:28:51.665Z,10.45
2023-03-06T07:31:24.694Z,10.65
2023-03-06T07:33:52.160Z,12.88
2023-03-06T07:36:19.203Z,10.48
2023-03-06T07:38:46.429Z,14.18
2023-03-06T07:41:14.666Z,11.82
2023-03-06T07:43:41.824Z,14.25
2023-03-06T07:46:09.335Z,13.68
2023-03-06T07:48:37.282Z,13.20
2023-03-06T07:51:05.943Z,11.43
2023-03-06T07:53:33.121Z,11.35
2023-03-06T07:56:00.243Z,10.50
2023-03-06T07:58:27.338Z,13.27
2023-03-06T08:00:54.298Z,14.98
2023-03-06T08:03:21.269Z,12.32
2023-03-06T08:05:48.287Z,11.52
2023-03-06T08:08:15.286Z,10.43
2023-03-06T08:10:46.881Z,9.65
2023-03-06T08:13:13.827Z,9.85
2023-03-06T08:15:40.697Z,13.25
2023-03-06T08:18:07.645Z,13.30
2023-03-06T08:20:34.619Z,11.90
2023-03-06T08:23:01.656Z,10.00
2023-03-06T08:25:28.603Z,10.15
2023-03-06T08:27:55.616Z,12.15
2023-03-06T08:30:23.112Z,9.18
2023-03-06T08:32:50.133Z,8.07
2023-03-06T08:35:17.081Z,9.02
2023-03-06T08:37:44.100Z,11.85
2023-03-06T08:40:11.625Z,8.40
2023-03-06T08:42:38.444Z,9.43
2023-03-06T08:45:14.552Z,8.52
2023-03-06T08:47:41.347Z,12.82
2023-03-06T08:50:08.952Z,9.15
2023-03-06T08:52:35.977Z,8.43
2023-03-06T08:55:03.664Z,8.20
2023-03-06T08:57:33.798Z,10.18
2023-03-06T09:00:00.696Z,9.95
2023-03-06T09:02:27.859Z,11.98
2023-03-06T09:04:55.254Z,9.15
2023-03-06T09:07:22.090Z,9.35
2023-03-06T09:09:49.006Z,6.70
2023-03-06T09:12:16.352Z,8.52
2023-03-06T09:14:43.591Z,6.93
2023-03-06T09:17:10.529Z,8.30
2023-03-06T09:19:38.469Z,7.75
2023-03-06T09:22:05.467Z,8.80
2023-03-06T09:24:32.817Z,9.07
2023-03-06T09:26:59.711Z,10.38
2023-03-06T09:29:26.860Z,9.23
2023-03-06T09:31:54.032Z,12.40
2023-03-06T09:34:21.112Z,11.80
2023-03-06T09:36:56.943Z,11.18
2023-03-06T09:39:25.162Z,10.70
2023-03-06T09:41:52.767Z,9.30
2023-03-06T09:44:24.042Z,10.98
2023-03-06T09:47:13.841Z,10.15
2023-03-06T09:49:44.116Z,8.60
2023-03-06T09:52:15.751Z,9.63
2023-03-06T09:55:03.506Z,9.70
2023-03-06T09:57:35.980Z,9.70
2023-03-06T10:00:17.317Z,8.25
2023-03-06T10:03:20.837Z,8.20
2023-03-06T10:06:09.678Z,10.02
2023-03-06T10:08:48.598Z,5.78
2023-03-06T10:11:22.194Z,9.65
2023-03-06T10:13:52.107Z,8.68
2023-03-06T10:16:30.343Z,6.93
2023-03-06T10:19:05.783Z,7.35
2023-03-06T10:21:37.508Z,7.38
2023-03-06T10:24:07.765Z,6.95
2023-03-06T10:26:49.694Z,11.20
2023-03-06T10:29:26.306Z,11.55
2023-03-06T10:31:58.547Z,10.23
2023-03-06T10:34:30.039Z,8.63
2023-03-06T10:36:58.853Z,7.38
2023-03-06T10:39:25.641Z,7.80
2023-03-06T10:41:52.912Z,8.15
2023-03-06T10:44:20.747Z,5.80
2023-03-06T10:46:49.133Z,8.00
2023-03-06T10:49:35.667Z,9.48
2023-03-06T10:52:06.773Z,9.13
2023-03-06T10:54:39.035Z,6.82
2023-03-06T10:57:29.612Z,9.77
2023-03-06T10:59:58.231Z,10.57
2023-03-06T11:02:44.448Z,8.05
2023-03-06T11:05:20.927Z,6.45
2023-03-06T11:07:55.892Z,6.28
2023-03-06T11:10:23.714Z,9.15
2023-03-06T11:13:02.992Z,8.07
2023-03-06T11:15:30.240Z,7.90
2023-03-06T11:17:58.802Z,10.10
2023-03-06T11:20:48.548Z,5.13
2023-03-06T11:23:35.166Z,6.95
2023-03-06T11:26:17.749Z,5.22
2023-03-06T11:28:47.413Z,4.57
2023-03-06T11:31:25.936Z,3.42
2023-03-06T11:33:54.332Z,6.40
2023-03-06T11:36:40.273Z,4.88
2023-03-06T11:39:40.326Z,4.05
2023-03-06T11:42:26.233Z,3.05
2023-03-06T11:45:15.129Z,10.73
2023-03-06T11:47:50.550Z,5.88
2023-03-06T11:50:38.821Z,4.95
2023-03-06T11:53:07.064Z,3.78
2023-03-06T11:55:45.366Z,8.38
2023-03-06T11:58:24.383Z,5.55
2023-03-06T12:00:53.392Z,5.30
2023-03-06T12:03:38.815Z,9.50
2023-03-06T12:06:41.081Z,3.38
2023-03-06T12:09:25.163Z,3.47
2023-03-06T12:12:04.004Z,5.30
2023-03-06T12:14:43.986Z,4.82
2023-03-06T12:17:34.218Z,6.10
2023-03-06T12:20:24.019Z,5.05
2023-03-06T12:23:02.527Z,4.70
2023-03-06T12:26:03.197Z,2.80
2023-03-06T12:28:43.656Z,5.32
2023-03-06T12:31:29.372Z,3.35
2023-03-06T12:34:15.260Z,2.85
2023-03-06T12:37:09.931Z,3.65
2023-03-06T12:40:06.842Z,4.03
2023-03-06T12:42:55.609Z,3.42
2023-03-06T12:45:40.666Z,3.88
2023-03-06T12:48:21.228Z,4.65
2023-03-06T12:50:47.947Z,3.50
2023-03-06T12:53:31.444Z,6.13
2023-03-06T12:55:58.907Z,3.30
2023-03-06T12:58:31.692Z,6.07
2023-03-06T13:01:33.474Z,2.65
2023-03-06T13:04:25.538Z,3.78
2023-03-06T13:07:17.900Z,3.40
2023-03-06T13:10:11.584Z,5.05
2023-03-06T13:12:55.665Z,5.28
2023-03-06T13:15:41.923Z,3.22
2023-03-06T13:18:24.168Z,2.22
2023-03-06T13:20:55.177Z,5.28
2023-03-06T13:23:37.366Z,3.55
2023-03-06T13:26:11.640Z,2.35
2023-03-06T13:28:46.096Z,3.85
2023-03-06T13:31:26.449Z,4.30
2023-03-06T13:33:58.513Z,4.57
2023-03-06T13:36:39.021Z,4.32
2023-03-06T13:39:10.440Z,3.05
2023-03-06T13:41:43.334Z,2.22
2023-03-06T13:44:40.159Z,5.18
2023-03-06T13:47:18.282Z,3.85
2023-03-06T13:49:46.474Z,4.30
2023-03-06T13:52:34.528Z,1.83
2023-03-06T13:55:17.902Z,2.97
2023-03-06T13:57:53.997Z,3.17
2023-03-06T14:00:43.051Z,4.93
2023-03-06T14:03:25.684Z,4.95
2023-03-06T14:05:56.229Z,2.35
2023-03-06T14:08:27.649Z,4.50
2023-03-06T14:11:20.383Z,3.08
2023-03-06T14:13:50.275Z,2.70
2023-03-06T14:16:32.696Z,5.05
2023-03-06T14:19:04.356Z,2.05
2023-03-06T14:21:49.278Z,2.00
2023-03-06T14:24:17.693Z,3.47
2023-03-06T14:26:51.290Z,2.70
2023-03-06T14:29:25.628Z,2.80
2023-03-06T14:31:54.004Z,1.20
2023-03-06T14:34:25.874Z,2.05
2023-03-06T14:37:00.498Z,1.50
2023-03-06T14:39:56.056Z,1.17
2023-03-06T14:42:27.061Z,4.65
2023-03-06T14:45:09.245Z,3.97
2023-03-06T14:47:36.621Z,2.22
2023-03-06T14:50:39.862Z,2.65
2023-03-06T14:53:15.160Z,3.75
2023-03-06T14:58:24.503Z,1.75
2023-03-06T15:00:52.045Z,3.95
2023-03-06T15:03:22.113Z,5.95
2023-03-06T15:05:49.128Z,2.45
2023-03-06T15:08:25.374Z,3.25
2023-03-06T15:11:03.032Z,2.38
2023-03-06T15:13:31.257Z,2.85
2023-03-06T15:16:06.997Z,2.60
2023-03-06T15:18:42.866Z,5.65
2023-03-06T15:21:16.794Z,3.53
2023-03-06T15:23:50.351Z,4.82
2023-03-06T15:26:19.876Z,4.55
2023-03-06T15:28:59.998Z,5.80
2023-03-06T15:31:36.329Z,4.25
2023-03-06T15:34:11.898Z,3.97
2023-03-06T15:36:49.229Z,8.35
2023-03-06T15:39:29.455Z,6.07
2023-03-06T15:42:24.883Z,6.25
2023-03-06T15:44:53.510Z,3.80
2023-03-06T15:47:21.285Z,5.10
2023-03-06T15:49:52.245Z,8.63
2023-03-06T15:52:22.333Z,4.40
2023-03-06T15:54:49.716Z,5.38
2023-03-06T15:57:36.241Z,5.53
2023-03-06T16:00:04.118Z,5.57
2023-03-06T16:02:31.405Z,3.30
2023-03-06T16:04:58.418Z,2.03
2023-03-06T16:07:26.798Z,2.38
2023-03-06T16:09:54.996Z,3.17
2023-03-06T16:12:22.176Z,1.58
2023-03-06T16:14:49.030Z,0.93
2023-03-06T16:17:16.118Z,2.80
2023-03-06T16:19:43.566Z,1.40
2023-03-06T16:22:10.870Z,4.70
2023-03-06T16:24:38.009Z,1.63
2023-03-06T16:27:05.053Z,2.45
2023-03-06T16:29:32.267Z,2.80
2023-03-06T16:32:01.841Z,2.45
2023-03-06T16:34:28.996Z,1.92
2023-03-06T16:36:56.217Z,1.55
2023-03-06T16:39:23.732Z,1.90
2023-03-06T16:41:51.035Z,0.93
2023-03-06T16:44:18.389Z,2.08
2023-03-06T16:46:46.939Z,1.00
2023-03-06T16:49:18.463Z,1.40
2023-03-06T16:51:45.696Z,0.75
2023-03-06T16:54:12.886Z,2.80
2023-03-06T16:56:39.886Z,1.45
2023-03-06T16:59:06.857Z,2.30
2023-03-06T17:01:33.952Z,1.38
2023-03-06T17:04:00.920Z,0.82
2023-03-06T17:06:27.870Z,0.93
2023-03-06T17:08:54.829Z,1.13
2023-03-06T17:11:21.802Z,2.25
2023-03-06T17:13:48.765Z,5.82
2023-03-06T17:16:16.380Z,2.70
2023-03-06T17:18:44.101Z,2.67
2023-03-06T17:21:11.072Z,1.60
2023-03-06T17:23:37.823Z,3.13
2023-03-06T17:26:05.569Z,1.98
2023-03-06T17:28:32.553Z,2.67
2023-03-06T17:31:00.101Z,1.83
2023-03-06T17:33:26.951Z,1.98
2023-03-06T17:36:01.130Z,1.50
2023-03-06T17:40:55.346Z,3.20
2023-03-06T17:43:22.317Z,1.77
2023-03-06T17:45:49.165Z,2.38
2023-03-06T17:48:15.998Z,2.03
2023-03-06T17:50:43.472Z,1.40
2023-03-06T17:53:10.351Z,2.28
2023-03-06T17:55:58.030Z,2.10
2023-03-06T17:58:29.636Z,3.17
2023-03-06T18:00:56.482Z,1.25
2023-03-06T18:03:23.532Z,2.65
2023-03-06T18:06:02.487Z,1.83
2023-03-06T18:08:29.686Z,3.00
2023-03-06T18:11:00.989Z,2.47
2023-03-06T18:13:28.147Z,3.50
2023-03-06T18:15:54.950Z,2.25
2023-03-06T18:18:21.909Z,1.88
2023-03-06T18:20:48.846Z,1.55
2023-03-06T18:23:15.836Z,4.60
2023-03-06T18:25:42.996Z,2.05
2023-03-06T18:28:09.694Z,2.47
2023-03-06T18:30:37.551Z,3.22
2023-03-06T18:33:04.845Z,2.25
2023-03-06T18:35:34.340Z,3.35
2023-03-06T18:38:01.484Z,2.97
2023-03-06T18:40:28.278Z,1.85
2023-03-06T18:42:55.138Z,5.50
2023-03-06T18:45:22.133Z,4.32
2023-03-06T18:47:49.020Z,3.15
2023-03-06T18:50:17.699Z,2.92
2023-03-06T18:52:44.999Z,4.13
2023-03-06T18:55:11.925Z,5.55
2023-03-06T18:57:39.058Z,2.75
2023-03-06T19:00:07.029Z,4.93
2023-03-06T19:02:34.036Z,3.58
2023-03-06T19:05:00.844Z,3.15
2023-03-06T19:07:27.787Z,5.55
2023-03-06T19:09:54.683Z,5.18
2023-03-06T19:12:21.640Z,4.47
2023-03-06T19:14:48.649Z,4.22
2023-03-06T19:17:15.392Z,5.85
2023-03-06T19:19:51.972Z,5.20
2023-03-06T19:22:18.770Z,2.78
2023-03-06T19:24:46.941Z,3.88
2023-03-06T19:27:18.036Z,3.53
2023-03-06T19:29:45.243Z,3.45
2023-03-06T19:32:12.350Z,2.22
2023-03-06T19:34:39.238Z,3.35
2023-03-06T19:37:06.052Z,1.45
2023-03-06T19:39:32.909Z,1.40
2023-03-06T19:41:59.745Z,0.85
2023-03-06T19:44:26.673Z,5.78
2023-03-06T19:46:53.509Z,4.40
2023-03-06T19:49:22.264Z,0.70
2023-03-06T19:51:49.065Z,1.25
2023-03-06T19:54:16.137Z,1.58
2023-03-06T19:56:42.957Z,2.00
2023-03-06T19:59:09.910Z,2.65
2023-03-06T20:01:38.183Z,1.27
2023-03-06T20:04:05.135Z,1.67
2023-03-06T20:06:37.665Z,1.30
2023-03-06T20:09:06.434Z,2.38
2023-03-06T20:11:33.351Z,3.85
2023-03-06T20:14:01.527Z,1.95
2023-03-06T20:16:28.748Z,2.95
2023-03-06T20:18:58.080Z,1.35
2023-03-06T20:21:25.839Z,6.20
2023-03-06T20:23:53.691Z,6.32
2023-03-06T20:26:20.736Z,3.78
2023-03-06T20:28:47.681Z,4.43
2023-03-06T20:31:16.909Z,3.58
2023-03-06T20:33:47.602Z,5.20
2023-03-06T20:36:15.618Z,3.67
2023-03-06T20:38:42.742Z,5.95
2023-03-06T20:41:21.168Z,4.82
2023-03-06T20:43:48.179Z,3.90
2023-03-06T20:46:15.429Z,6.10
2023-03-06T20:48:47.171Z,6.60
2023-03-06T20:51:16.731Z,8.73
2023-03-06T20:53:43.709Z,6.57
2023-03-06T20:56:14.480Z,5.15
2023-03-06T20:58:41.271Z,7.13
2023-03-06T21:01:08.117Z,5.93
2023-03-06T21:03:35.084Z,7.60
2023-03-06T21:06:01.816Z,7.63
2023-03-06T21:08:28.726Z,6.32
2023-03-06T21:10:55.490Z,4.93
2023-03-06T21:13:22.279Z,5.55
2023-03-06T21:15:49.153Z,9.10
2023-03-06T21:18:16.115Z,6.85
2023-03-06T21:20:43.146Z,6.72
2023-03-06T21:23:10.022Z,4.55
2023-03-06T21:25:36.950Z,5.18
2023-03-06T21:28:03.908Z,2.42
2023-03-06T21:30:31.055Z,3.13
2023-03-06T21:32:57.955Z,3.33
2023-03-06T21:35:24.738Z,4.25
2023-03-06T21:37:51.780Z,4.97
2023-03-06T21:40:18.838Z,3.97
2023-03-06T21:42:45.689Z,4.05
2023-03-06T21:45:12.706Z,3.38
2023-03-06T21:47:40.953Z,2.53
2023-03-06T21:50:08.959Z,2.85
2023-03-06T21:52:36.277Z,2.80
2023-03-06T21:55:03.283Z,3.92
2023-03-06T21:57:30.178Z,3.40
2023-03-06T21:59:57.018Z,3.65
2023-03-06T22:02:24.155Z,3.40
2023-03-06T22:04:56.638Z,3.80
2023-03-06T22:07:23.816Z,3.30
2023-03-06T22:09:53.750Z,2.97
2023-03-06T22:12:21.508Z,2.97
2023-03-06T22:14:48.520Z,2.85
2023-03-06T22:17:15.425Z,2.67
2023-03-06T22:19:42.384Z,1.55
2023-03-06T22:22:10.721Z,2.65
2023-03-06T22:24:37.621Z,3.70
2023-03-06T22:27:04.714Z,4.97
2023-03-06T22:29:31.608Z,4.05
2023-03-06T22:31:58.473Z,3.67
2023-03-06T22:34:26.597Z,2.55
2023-03-06T22:36:53.399Z,2.25
2023-03-06T22:39:20.500Z,7.03
2023-03-06T22:41:48.633Z,5.20
2023-03-06T22:44:17.020Z,4.25
2023-03-06T22:46:46.911Z,3.40
2023-03-06T22:49:16.956Z,2.83
2023-03-06T22:51:43.868Z,3.85
2023-03-06T22:54:10.930Z,5.43
2023-03-06T22:56:40.705Z,4.07
2023-03-06T22:59:07.819Z,4.28
2023-03-06T23:01:35.044Z,2.70
2023-03-06T23:04:03.129Z,4.00
2023-03-06T23:06:35.164Z,2.67
2023-03-06T23:09:06.054Z,5.15
2023-03-06T23:11:33.169Z,3.33
2023-03-06T23:14:00.169Z,3.95
2023-03-06T23:16:27.136Z,5.38
2023-03-06T23:18:54.101Z,2.95
2023-03-06T23:21:21.363Z,4.38
2023-03-06T23:23:49.198Z,4.70
2023-03-06T23:26:16.181Z,5.15
2023-03-06T23:28:43.144Z,3.03
2023-03-06T23:31:11.121Z,3.95
2023-03-06T23:33:38.868Z,3.38
2023-03-06T23:36:16.191Z,6.47
2023-03-06T23:38:43.274Z,2.55
2023-03-06T23:41:20.247Z,2.38
2023-03-06T23:43:47.780Z,4.75
2023-03-06T23:46:14.851Z,2.85
2023-03-06T23:48:41.860Z,4.47
2023-03-06T23:51:10.075Z,3.95
2023-03-06T23:53:37.056Z,5.40
2023-03-06T23:56:05.310Z,2.17
2023-03-06T23:58:32.420Z,3.78
